createdAt,value
2017-06-14T00:01:49.562Z,11.75
2017-06-14T00:04:16.203Z,10.68
2017-06-14T00:06:42.842Z,10.30
2017-06-14T00:09:09.470Z,11.38
2017-06-14T00:11:36.082Z,9.80
2017-06-14T00:14:02.759Z,9.45
2017-06-14T00:16:29.386Z,10.00
2017-06-14T00:18:56.002Z,10.23
2017-06-14T00:21:22.674Z,11.05
2017-06-14T00:23:49.311Z,11.23
2017-06-14T00:26:15.955Z,11.20
2017-06-14T00:28:42.566Z,11.32
2017-06-14T00:31:09.375Z,9.70
2017-06-14T00:33:36.079Z,10.00
2017-06-14T00:36:02.719Z,10.13
2017-06-14T00:38:29.355Z,10.18
2017-06-14T00:40:55.963Z,9.90
2017-06-14T00:43:22.630Z,11.07
2017-06-14T00:45:49.262Z,10.20
2017-06-14T00:48:15.882Z,10.90
2017-06-14T00:50:42.486Z,9.90
2017-06-14T00:53:09.186Z,9.90
2017-06-14T00:55:35.831Z,9.68
2017-06-14T00:58:02.466Z,9.95
2017-06-14T01:00:29.107Z,9.80
2017-06-14T01:02:55.747Z,12.55
2017-06-14T01:05:22.383Z,10.40
2017-06-14T01:07:49.135Z,11.85
2017-06-14T01:10:15.771Z,11.25
2017-06-14T01:12:42.379Z,10.60
2017-06-14T01:15:09.011Z,10.77
2017-06-14T01:17:35.682Z,10.88
2017-06-14T01:20:02.295Z,12.00
2017-06-14T01:22:29.370Z,11.85
2017-06-14T01:24:56.010Z,12.25
2017-06-14T01:27:22.646Z,11.98
2017-06-14T01:29:49.286Z,11.82
2017-06-14T01:32:15.931Z,12.70
2017-06-14T01:34:42.547Z,12.75
2017-06-14T01:37:09.183Z,13.75
2017-06-14T01:39:35.842Z,12.15
2017-06-14T01:42:02.454Z,12.65
2017-06-14T01:44:29.086Z,12.13
2017-06-14T01:46:55.699Z,12.55
2017-06-14T01:49:22.399Z,11.90
2017-06-14T01:51:49.143Z,11.45
2017-06-14T01:54:15.786Z,12.02
2017-06-14T01:56:42.401Z,12.90
2017-06-14T01:59:09.058Z,12.20
2017-06-14T02:01:35.680Z,12.77
2017-06-14T02:04:02.294Z,11.40
2017-06-14T02:06:28.922Z,13.07
2017-06-14T02:08:55.614Z,12.37
2017-06-14T02:11:22.259Z,13.02
2017-06-14T02:13:48.886Z,12.65
2017-06-14T02:16:15.500Z,12.00
2017-06-14T02:18:42.170Z,12.10
2017-06-14T02:21:08.911Z,12.07
2017-06-14T02:23:35.555Z,10.82
2017-06-14T02:26:02.171Z,12.82
2017-06-14T02:28:28.826Z,12.60
2017-06-14T02:30:55.466Z,11.85
2017-06-14T02:33:22.079Z,11.68
2017-06-14T02:35:48.746Z,13.27
2017-06-14T02:38:15.359Z,11.65
2017-06-14T02:40:42.064Z,12.15
2017-06-14T02:43:08.767Z,13.10
2017-06-14T02:45:35.406Z,13.60
2017-06-14T02:48:02.026Z,12.43
2017-06-14T02:50:28.666Z,13.10
2017-06-14T02:52:55.320Z,12.65
2017-06-14T02:55:21.962Z,13.50
2017-06-14T02:57:48.599Z,12.82
2017-06-14T03:00:15.239Z,13.45
2017-06-14T03:02:41.875Z,12.37
2017-06-14T03:05:08.511Z,13.20
2017-06-14T03:07:35.122Z,12.23
2017-06-14T03:10:01.794Z,13.52
2017-06-14T03:12:28.427Z,13.18
2017-06-14T03:14:55.037Z,13.20
2017-06-14T03:17:21.659Z,13.27
2017-06-14T03:19:48.287Z,13.30
2017-06-14T03:22:14.910Z,12.55
2017-06-14T03:24:41.626Z,13.25
2017-06-14T03:27:08.266Z,12.45
2017-06-14T03:29:34.883Z,13.57
2017-06-14T03:32:01.551Z,11.75
2017-06-14T03:34:28.187Z,12.23
2017-06-14T03:36:54.827Z,12.02
2017-06-14T03:39:21.462Z,13.70
2017-06-14T03:41:48.203Z,18.55
2017-06-14T03:44:14.815Z,13.85
2017-06-14T03:46:41.482Z,14.75
2017-06-14T03:49:08.227Z,12.70
2017-06-14T03:51:34.866Z,12.82
2017-06-14T03:54:01.507Z,13.48
2017-06-14T03:56:28.246Z,13.30
2017-06-14T03:58:54.888Z,14.73
2017-06-14T04:01:21.506Z,12.77
2017-06-14T04:03:48.134Z,12.02
2017-06-14T04:06:14.806Z,13.13
2017-06-14T04:08:41.469Z,14.52
2017-06-14T04:11:08.186Z,11.75
2017-06-14T04:13:34.803Z,12.80
2017-06-14T04:16:01.458Z,14.38
2017-06-14T04:18:28.199Z,12.13
2017-06-14T04:20:54.811Z,14.07
2017-06-14T04:23:21.424Z,12.90
2017-06-14T04:25:48.054Z,13.00
2017-06-14T04:28:14.670Z,15.00
2017-06-14T04:30:41.399Z,14.60
2017-06-14T04:33:08.138Z,14.70
2017-06-14T04:35:34.762Z,15.35
2017-06-14T04:38:01.414Z,13.30
2017-06-14T04:40:28.157Z,13.85
2017-06-14T04:42:54.806Z,14.07
2017-06-14T04:45:21.414Z,15.00
2017-06-14T04:47:48.074Z,15.07
2017-06-14T04:50:14.690Z,13.40
2017-06-14T04:52:41.353Z,15.63
2017-06-14T04:55:07.990Z,15.60
2017-06-14T04:57:34.626Z,14.68
2017-06-14T05:00:01.266Z,14.00
2017-06-14T05:02:28.011Z,13.85
2017-06-14T05:04:54.622Z,13.00
2017-06-14T05:07:21.234Z,14.65
2017-06-14T05:09:47.870Z,13.93
2017-06-14T05:12:14.487Z,14.87
2017-06-14T05:14:41.102Z,14.13
2017-06-14T05:17:08.582Z,14.10
2017-06-14T05:19:35.206Z,13.98
2017-06-14T05:22:01.823Z,14.20
2017-06-14T05:24:28.478Z,15.02
2017-06-14T05:26:55.158Z,12.82
2017-06-14T05:29:21.858Z,13.85
2017-06-14T05:31:48.602Z,15.27
2017-06-14T05:34:15.249Z,15.48
2017-06-14T05:36:41.858Z,14.93
2017-06-14T05:39:08.527Z,14.32
2017-06-14T05:41:35.140Z,14.35
2017-06-14T05:44:01.754Z,15.00
2017-06-14T05:46:28.434Z,14.77
2017-06-14T05:48:55.054Z,13.70
2017-06-14T05:51:21.718Z,14.05
2017-06-14T05:53:48.350Z,14.50
2017-06-14T05:56:14.963Z,13.52
2017-06-14T05:58:41.634Z,13.30
2017-06-14T06:01:08.267Z,13.77
2017-06-14T06:03:34.883Z,14.57
2017-06-14T06:06:01.549Z,14.43
2017-06-14T06:08:28.183Z,14.27
2017-06-14T06:10:54.790Z,13.07
2017-06-14T06:13:21.407Z,13.18
2017-06-14T06:15:48.104Z,12.63
2017-06-14T06:18:14.743Z,13.68
2017-06-14T06:20:41.360Z,12.10
2017-06-14T06:23:08.018Z,12.45
2017-06-14T06:25:34.631Z,11.95
2017-06-14T06:28:01.251Z,13.15
2017-06-14T06:30:27.977Z,13.73
2017-06-14T06:32:54.682Z,12.45
2017-06-14T06:35:21.358Z,12.95
2017-06-14T06:37:47.991Z,13.45
2017-06-14T06:40:14.637Z,12.98
2017-06-14T06:42:41.247Z,12.80
2017-06-14T06:45:07.884Z,13.00
2017-06-14T06:47:34.518Z,12.65
2017-06-14T06:50:01.135Z,11.75
2017-06-14T06:52:27.794Z,12.48
2017-06-14T06:54:54.413Z,12.25
2017-06-14T06:57:21.035Z,10.95
2017-06-14T06:59:47.711Z,12.63
2017-06-14T07:02:14.347Z,12.75
2017-06-14T07:04:40.971Z,13.43
2017-06-14T07:07:07.625Z,14.43
2017-06-14T07:09:34.266Z,15.95
2017-06-14T07:12:00.879Z,12.82
2017-06-14T07:14:27.550Z,11.98
2017-06-14T07:16:54.158Z,11.63
2017-06-14T07:19:20.771Z,11.38
2017-06-14T07:21:47.398Z,9.80
2017-06-14T07:24:14.111Z,11.20
2017-06-14T07:26:40.722Z,10.13
2017-06-14T07:29:07.384Z,9.30
2017-06-14T07:31:34.014Z,9.40
2017-06-14T07:34:00.655Z,9.40
2017-06-14T07:36:27.395Z,8.88
2017-06-14T07:38:54.039Z,8.75
2017-06-14T07:41:20.651Z,8.13
2017-06-14T07:43:47.271Z,8.05
2017-06-14T07:46:13.951Z,8.35
2017-06-14T07:48:40.594Z,7.72
2017-06-14T07:51:07.330Z,7.85
2017-06-14T07:53:33.946Z,7.45
2017-06-14T07:56:00.550Z,7.57
2017-06-14T07:58:27.175Z,6.80
2017-06-14T08:00:53.792Z,7.43
2017-06-14T08:03:20.427Z,5.25
2017-06-14T08:05:47.059Z,8.10
2017-06-14T08:08:13.662Z,6.57
2017-06-14T08:10:40.267Z,5.87
2017-06-14T08:13:06.982Z,6.05
2017-06-14T08:15:33.587Z,6.43
2017-06-14T08:18:00.258Z,5.82
2017-06-14T08:20:26.890Z,6.43
2017-06-14T08:22:53.502Z,5.75
2017-06-14T08:25:20.178Z,5.75
2017-06-14T08:27:46.819Z,6.18
2017-06-14T08:30:13.427Z,5.70
2017-06-14T08:32:40.094Z,5.53
2017-06-14T08:35:06.721Z,5.18
2017-06-14T08:37:33.370Z,6.15
2017-06-14T08:39:59.979Z,5.30
2017-06-14T08:42:26.603Z,4.62
2017-06-14T08:44:53.206Z,4.70
2017-06-14T08:47:19.826Z,5.28
2017-06-14T08:49:46.470Z,4.75
2017-06-14T08:52:13.078Z,4.05
2017-06-14T08:54:39.687Z,5.03
2017-06-14T08:57:06.319Z,5.00
2017-06-14T08:59:33.024Z,4.85
2017-06-14T09:01:59.659Z,3.95
2017-06-14T09:04:26.299Z,4.03
2017-06-14T09:06:52.898Z,4.60
2017-06-14T09:09:19.582Z,5.35
2017-06-14T09:11:46.318Z,5.60
2017-06-14T09:14:12.922Z,4.78
2017-06-14T09:16:39.598Z,3.55
2017-06-14T09:19:06.234Z,3.90
2017-06-14T09:21:32.847Z,3.62
2017-06-14T09:23:59.514Z,2.70
2017-06-14T09:26:26.134Z,3.60
2017-06-14T09:28:52.791Z,2.90
2017-06-14T09:31:19.430Z,3.55
2017-06-14T09:33:46.179Z,4.00
2017-06-14T09:36:12.783Z,3.80
2017-06-14T09:38:39.392Z,2.92
2017-06-14T09:41:06.090Z,3.42
2017-06-14T09:43:32.727Z,3.83
2017-06-14T09:45:59.366Z,3.90
2017-06-14T09:48:25.986Z,3.22
2017-06-14T09:50:52.648Z,3.28
2017-06-14T09:53:19.256Z,3.80
2017-06-14T09:55:45.882Z,3.80
2017-06-14T09:58:12.876Z,3.60
2017-06-14T10:00:39.497Z,3.40
2017-06-14T10:03:06.123Z,2.95
2017-06-14T10:05:32.790Z,3.70
2017-06-14T10:07:59.467Z,4.05
2017-06-14T10:10:26.087Z,4.15
2017-06-14T10:12:52.691Z,3.12
2017-06-14T10:15:19.384Z,3.45
2017-06-14T10:17:46.002Z,3.17
2017-06-14T10:20:12.662Z,4.25
2017-06-14T10:22:39.363Z,3.45
2017-06-14T10:25:06.103Z,3.55
2017-06-14T10:27:32.784Z,4.05
2017-06-14T10:29:59.487Z,3.10
2017-06-14T10:32:26.111Z,2.90
2017-06-14T10:34:52.717Z,3.70
2017-06-14T10:37:19.323Z,3.83
2017-06-14T10:39:46.082Z,4.30
2017-06-14T10:42:12.687Z,3.40
2017-06-14T10:44:39.323Z,3.85
2017-06-14T10:47:06.058Z,3.45
2017-06-14T10:49:32.700Z,4.22
2017-06-14T10:51:59.307Z,3.85
2017-06-14T10:54:25.935Z,3.80
2017-06-14T10:56:52.544Z,3.45
2017-06-14T10:59:19.255Z,4.22
2017-06-14T11:01:45.935Z,4.10
2017-06-14T11:04:12.639Z,4.47
2017-06-14T11:06:39.282Z,3.95
2017-06-14T11:09:06.019Z,3.70
2017-06-14T11:11:32.622Z,4.10
2017-06-14T11:13:59.291Z,3.70
2017-06-14T11:16:25.939Z,3.80
2017-06-14T11:18:52.543Z,4.20
2017-06-14T11:21:19.211Z,3.60
2017-06-14T11:23:45.851Z,4.15
2017-06-14T11:26:12.489Z,3.05
2017-06-14T11:28:39.131Z,3.85
2017-06-14T11:31:05.758Z,3.17
2017-06-14T11:33:32.373Z,3.45
2017-06-14T11:35:58.979Z,3.03
2017-06-14T11:38:25.690Z,2.53
2017-06-14T11:40:52.326Z,3.33
2017-06-14T11:43:18.935Z,2.60
2017-06-14T11:45:45.601Z,3.17
2017-06-14T11:48:12.243Z,2.90
2017-06-14T11:50:38.855Z,2.87
2017-06-14T11:53:05.478Z,2.78
2017-06-14T11:55:32.566Z,2.33
2017-06-14T11:57:59.207Z,2.42
2017-06-14T12:00:25.846Z,2.80
2017-06-14T12:02:52.458Z,2.85
2017-06-14T12:05:19.063Z,2.10
2017-06-14T12:07:45.686Z,2.73
2017-06-14T12:10:12.402Z,2.40
2017-06-14T12:12:39.042Z,1.70
2017-06-14T12:15:05.790Z,2.67
2017-06-14T12:17:32.423Z,2.40
2017-06-14T12:19:59.058Z,1.87
2017-06-14T12:22:25.683Z,2.40
2017-06-14T12:24:52.337Z,2.13
2017-06-14T12:27:18.946Z,2.80
2017-06-14T12:29:45.618Z,2.10
2017-06-14T12:32:12.218Z,2.60
2017-06-14T12:34:38.823Z,2.10
2017-06-14T12:37:05.535Z,2.00
2017-06-14T12:39:32.174Z,2.00
2017-06-14T12:41:58.814Z,1.90
2017-06-14T12:44:25.434Z,1.90
2017-06-14T12:46:52.042Z,1.70
2017-06-14T12:49:18.655Z,1.37
2017-06-14T12:51:45.275Z,1.80
2017-06-14T12:54:11.883Z,1.70
2017-06-14T12:56:38.494Z,1.60
2017-06-14T12:59:05.123Z,1.63
2017-06-14T13:01:31.823Z,1.40
2017-06-14T13:03:58.430Z,1.53
2017-06-14T13:06:25.055Z,1.60
2017-06-14T13:08:51.667Z,1.40
2017-06-14T13:11:18.419Z,1.50
2017-06-14T13:13:45.126Z,2.10
2017-06-14T13:16:11.730Z,1.57
2017-06-14T13:18:38.398Z,1.20
2017-06-14T13:21:05.018Z,1.20
2017-06-14T13:23:31.683Z,1.03
2017-06-14T13:25:58.296Z,1.20
2017-06-14T13:28:24.931Z,1.67
2017-06-14T13:30:51.596Z,1.27
2017-06-14T13:33:18.210Z,1.00
2017-06-14T13:35:44.834Z,1.33
2017-06-14T13:38:11.443Z,1.00
2017-06-14T13:40:38.046Z,1.30
2017-06-14T13:43:04.727Z,1.20
2017-06-14T13:45:31.803Z,1.10
2017-06-14T13:47:58.485Z,1.60
2017-06-14T13:50:25.102Z,1.10
2017-06-14T13:52:51.755Z,1.13
2017-06-14T13:55:18.395Z,1.10
2017-06-14T13:57:45.014Z,1.27
2017-06-14T14:00:11.615Z,1.50
2017-06-14T14:02:38.311Z,1.10
2017-06-14T14:05:04.935Z,1.00
2017-06-14T14:07:31.549Z,0.97
2017-06-14T14:09:58.227Z,1.63
2017-06-14T14:12:24.970Z,1.10
2017-06-14T14:14:51.574Z,0.80
2017-06-14T14:17:18.257Z,1.20
2017-06-14T14:19:44.875Z,1.20
2017-06-14T14:22:11.478Z,1.37
2017-06-14T14:24:38.091Z,1.30
2017-06-14T14:27:04.818Z,1.10
2017-06-14T14:29:31.435Z,0.90
2017-06-14T14:31:58.071Z,1.50
2017-06-14T14:34:24.702Z,0.87
2017-06-14T14:36:51.324Z,0.90
2017-06-14T14:39:18.002Z,1.13
2017-06-14T14:41:44.627Z,1.33
2017-06-14T14:44:11.230Z,0.90
2017-06-14T14:46:37.919Z,1.10
2017-06-14T14:49:04.657Z,0.87
2017-06-14T14:51:31.294Z,0.87
2017-06-14T14:53:57.942Z,1.33
2017-06-14T14:56:24.566Z,0.90
2017-06-14T14:58:51.314Z,1.17
2017-06-14T15:01:17.921Z,1.10
2017-06-14T15:03:44.550Z,0.80
2017-06-14T15:06:11.151Z,1.33
2017-06-14T15:08:37.767Z,1.40
2017-06-14T15:11:04.411Z,0.87
2017-06-14T15:13:31.046Z,1.10
2017-06-14T15:15:57.659Z,1.10
2017-06-14T15:18:24.288Z,0.83
2017-06-14T15:20:50.894Z,1.10
2017-06-14T15:23:17.606Z,1.13
2017-06-14T15:25:44.243Z,1.30
2017-06-14T15:28:10.850Z,1.20
2017-06-14T15:30:37.460Z,1.13
2017-06-14T15:33:04.163Z,0.83
2017-06-14T15:35:30.774Z,1.27
2017-06-14T15:37:57.442Z,0.70
2017-06-14T15:40:24.066Z,1.10
2017-06-14T15:42:50.679Z,1.00
2017-06-14T15:45:17.354Z,1.27
2017-06-14T15:47:43.975Z,0.77
2017-06-14T15:50:10.579Z,0.73
2017-06-14T15:52:37.183Z,0.87
2017-06-14T15:55:03.802Z,0.70
2017-06-14T15:57:30.410Z,0.97
2017-06-14T15:59:57.019Z,0.90
2017-06-14T16:02:23.638Z,0.87
2017-06-14T16:04:50.243Z,1.10
2017-06-14T16:07:16.907Z,0.97
2017-06-14T16:09:43.530Z,1.27
2017-06-14T16:12:10.180Z,1.07
2017-06-14T16:14:36.783Z,1.20
2017-06-14T16:17:03.459Z,1.17
2017-06-14T16:19:30.066Z,1.20
2017-06-14T16:21:56.671Z,0.80
2017-06-14T16:24:23.379Z,0.93
2017-06-14T16:26:49.986Z,0.80
2017-06-14T16:29:16.655Z,0.83
2017-06-14T16:31:43.283Z,0.93
2017-06-14T16:34:09.890Z,0.80
2017-06-14T16:36:36.570Z,0.97
2017-06-14T16:39:03.192Z,0.90
2017-06-14T16:41:29.855Z,1.03
2017-06-14T16:43:56.458Z,1.10
2017-06-14T16:46:23.128Z,1.17
2017-06-14T16:48:49.735Z,0.90
2017-06-14T16:51:16.347Z,0.80
2017-06-14T16:53:43.042Z,1.27
2017-06-14T16:56:09.682Z,1.90
2017-06-14T16:58:36.322Z,1.30
2017-06-14T17:01:02.962Z,1.00
2017-06-14T17:03:29.571Z,1.53
2017-06-14T17:05:56.238Z,3.13
2017-06-14T17:08:22.867Z,1.80
2017-06-14T17:10:49.475Z,2.23
2017-06-14T17:13:16.154Z,1.90
2017-06-14T17:15:42.778Z,2.17
2017-06-14T17:18:09.390Z,1.60
2017-06-14T17:20:36.002Z,1.97
2017-06-14T17:23:02.624Z,1.93
2017-06-14T17:25:29.227Z,1.60
2017-06-14T17:27:56.107Z,1.70
2017-06-14T17:30:22.742Z,2.00
2017-06-14T17:32:49.370Z,2.00
2017-06-14T17:35:15.987Z,1.70
2017-06-14T17:37:42.622Z,3.00
2017-06-14T17:40:09.235Z,2.20
2017-06-14T17:42:35.933Z,3.95
2017-06-14T17:45:02.563Z,6.53
2017-06-14T17:47:29.169Z,2.10
2017-06-14T17:49:55.843Z,2.97
2017-06-14T17:52:22.586Z,2.35
2017-06-14T17:54:49.195Z,2.28
2017-06-14T17:57:15.866Z,2.37
2017-06-14T17:59:42.607Z,2.72
2017-06-14T18:02:09.246Z,2.20
2017-06-14T18:04:35.859Z,2.30
2017-06-14T18:07:02.523Z,2.90
2017-06-14T18:09:29.131Z,2.28
2017-06-14T18:11:55.797Z,2.15
2017-06-14T18:14:22.439Z,2.45
2017-06-14T18:16:49.079Z,2.50
2017-06-14T18:19:15.683Z,1.87
2017-06-14T18:21:42.355Z,2.58
2017-06-14T18:24:08.964Z,2.10
2017-06-14T18:26:35.574Z,2.15
2017-06-14T18:29:02.198Z,1.83
2017-06-14T18:31:28.803Z,2.87
2017-06-14T18:33:55.455Z,2.55
2017-06-14T18:36:22.091Z,1.90
2017-06-14T18:38:48.700Z,2.75
2017-06-14T18:41:15.366Z,2.53
2017-06-14T18:43:42.006Z,2.30
2017-06-14T18:46:08.612Z,2.75
2017-06-14T18:48:35.222Z,2.53
2017-06-14T18:51:01.923Z,3.05
2017-06-14T18:53:28.531Z,2.37
2017-06-14T18:55:55.138Z,2.78
2017-06-14T18:58:21.843Z,2.92
2017-06-14T19:00:48.480Z,2.80
2017-06-14T19:03:15.118Z,3.65
2017-06-14T19:05:41.755Z,2.90
2017-06-14T19:08:08.399Z,3.37
2017-06-14T19:10:35.034Z,3.65
2017-06-14T19:13:01.670Z,3.30
2017-06-14T19:15:28.363Z,2.70
2017-06-14T19:17:55.054Z,3.10
2017-06-14T19:20:21.679Z,2.30
2017-06-14T19:22:51.083Z,3.65
2017-06-14T19:25:17.686Z,2.95
2017-06-14T19:27:44.336Z,3.20
2017-06-14T19:30:10.938Z,3.00
2017-06-14T19:32:43.325Z,3.83
2017-06-14T19:35:09.947Z,2.83
2017-06-14T19:37:36.550Z,2.80
2017-06-14T19:40:03.207Z,3.30
2017-06-14T19:42:29.839Z,4.18
2017-06-14T19:44:56.446Z,2.72
2017-06-14T19:47:23.120Z,3.62
2017-06-14T19:49:49.743Z,3.80
2017-06-14T19:52:16.396Z,3.30
2017-06-14T19:54:43.034Z,3.55
2017-06-14T19:57:09.668Z,4.78
2017-06-14T19:59:36.318Z,5.22
2017-06-14T20:02:02.955Z,4.25
2017-06-14T20:04:29.578Z,4.93
2017-06-14T20:06:56.186Z,5.45
2017-06-14T20:09:22.794Z,4.22
2017-06-14T20:11:49.510Z,4.70
2017-06-14T20:14:16.142Z,4.43
2017-06-14T20:16:42.787Z,4.85
2017-06-14T20:19:09.427Z,4.35
2017-06-14T20:21:36.062Z,4.32
2017-06-14T20:24:02.706Z,4.28
2017-06-14T20:26:29.331Z,4.60
2017-06-14T20:28:55.934Z,3.80
2017-06-14T20:31:22.622Z,3.87
2017-06-14T20:33:49.247Z,3.90
2017-06-14T20:36:15.854Z,4.55
2017-06-14T20:38:42.539Z,5.05
2017-06-14T20:41:09.166Z,3.83
2017-06-14T20:43:35.777Z,4.65
2017-06-14T20:46:02.459Z,4.70
2017-06-14T20:48:29.082Z,4.25
2017-06-14T20:50:55.734Z,4.75
2017-06-14T20:53:22.342Z,4.15
2017-06-14T20:55:48.967Z,4.68
2017-06-14T20:58:15.650Z,4.50
2017-06-14T21:00:42.254Z,4.50
2017-06-14T21:03:08.883Z,5.25
2017-06-14T21:05:35.570Z,5.10
2017-06-14T21:08:02.178Z,5.60
2017-06-14T21:10:28.808Z,4.57
2017-06-14T21:12:55.487Z,4.90
2017-06-14T21:15:22.093Z,4.95
2017-06-14T21:17:48.765Z,4.75
2017-06-14T21:20:15.406Z,4.00
2017-06-14T21:22:42.010Z,4.53
2017-06-14T21:25:08.635Z,5.20
2017-06-14T21:27:35.323Z,5.20
2017-06-14T21:30:01.926Z,4.90
2017-06-14T21:32:28.551Z,4.55
2017-06-14T21:34:55.235Z,4.75
2017-06-14T21:37:21.843Z,4.53
2017-06-14T21:39:48.515Z,4.55
2017-06-14T21:42:15.119Z,4.57
2017-06-14T21:44:41.794Z,5.35
2017-06-14T21:47:08.410Z,4.68
2017-06-14T21:49:35.070Z,4.95
2017-06-14T21:52:01.711Z,5.50
2017-06-14T21:54:28.335Z,5.60
2017-06-14T21:56:54.986Z,6.37
2017-06-14T21:59:21.626Z,6.10
2017-06-14T22:01:48.246Z,5.90
2017-06-14T22:04:14.902Z,5.97
2017-06-14T22:06:41.510Z,6.37
2017-06-14T22:09:08.188Z,7.43
2017-06-14T22:11:34.822Z,6.62
2017-06-14T22:14:01.462Z,6.60
2017-06-14T22:16:28.103Z,6.45
2017-06-14T22:18:54.713Z,7.28
2017-06-14T22:21:21.314Z,7.37
2017-06-14T22:23:47.938Z,6.05
2017-06-14T22:26:14.543Z,6.93
2017-06-14T22:28:41.151Z,7.00
2017-06-14T22:31:07.834Z,8.13
2017-06-14T22:33:34.447Z,7.10
2017-06-14T22:36:01.055Z,7.62
2017-06-14T22:38:27.750Z,7.10
2017-06-14T22:40:54.355Z,6.65
2017-06-14T22:43:21.031Z,7.55
2017-06-14T22:45:47.777Z,7.15
2017-06-14T22:48:14.390Z,7.93
2017-06-14T22:50:41.002Z,7.93
2017-06-14T22:53:07.689Z,6.50
2017-06-14T22:55:34.294Z,6.47
2017-06-14T22:58:00.962Z,6.55
2017-06-14T23:00:27.603Z,7.25
2017-06-14T23:02:54.246Z,6.90
2017-06-14T23:05:20.884Z,6.22
2017-06-14T23:07:47.507Z,7.00
2017-06-14T23:10:14.159Z,6.68
2017-06-14T23:12:40.798Z,6.70
2017-06-14T23:15:07.431Z,6.78
2017-06-14T23:17:34.079Z,6.40
2017-06-14T23:20:00.723Z,6.85
2017-06-14T23:22:27.359Z,5.90
2017-06-14T23:24:53.970Z,5.90
2017-06-14T23:27:20.628Z,7.35
2017-06-14T23:29:47.276Z,6.20
2017-06-14T23:32:13.883Z,7.25
2017-06-14T23:34:40.488Z,6.93
2017-06-14T23:37:07.111Z,7.20
2017-06-14T23:39:33.728Z,7.80
2017-06-14T23:42:00.374Z,6.82
2017-06-14T23:44:26.994Z,7.10
2017-06-14T23:46:53.603Z,7.72
2017-06-14T23:49:20.284Z,6.70
2017-06-14T23:51:47.022Z,6.30
2017-06-14T23:54:13.630Z,8.00
2017-06-14T23:56:40.303Z,6.60
2017-06-14T23:59:07.022Z,7.43
